createdAt,value
2023-05-25T00:06:31.151Z,11.50
2023-05-25T00:13:13.628Z,11.10
2023-05-25T00:19:58.385Z,11.00
2023-05-25T00:26:43.466Z,10.90
2023-05-25T00:33:26.251Z,10.90
2023-05-25T00:40:12.464Z,11.00
2023-05-25T00:46:54.828Z,11.10
2023-05-25T00:53:37.650Z,11.30
2023-05-25T01:00:21.282Z,11.50
2023-05-25T01:07:06.674Z,11.50
2023-05-25T01:13:52.585Z,11.50
2023-05-25T01:20:35.387Z,11.40
2023-05-25T01:27:34.270Z,11.10
2023-05-25T01:34:17.251Z,11.00
2023-05-25T01:40:59.824Z,11.00
2023-05-25T01:48:16.499Z,10.80
2023-05-25T01:55:07.945Z,10.80
2023-05-25T02:01:54.663Z,10.70
2023-05-25T02:08:37.166Z,10.40
2023-05-25T02:15:21.405Z,10.30
2023-05-25T02:22:04.111Z,10.30
2023-05-25T02:28:46.713Z,10.00
2023-05-25T02:35:29.122Z,9.70
2023-05-25T02:42:11.717Z,9.80
2023-05-25T02:48:54.082Z,9.80
2023-05-25T02:55:40.458Z,9.70
2023-05-25T03:02:25.812Z,9.50
2023-05-25T03:09:09.679Z,9.50
2023-05-25T03:15:54.598Z,9.40
2023-05-25T03:22:38.479Z,9.40
2023-05-25T03:29:21.592Z,9.30
2023-05-25T03:36:09.324Z,9.20
2023-05-25T03:42:51.911Z,9.20
2023-05-25T03:49:34.686Z,9.20
2023-05-25T03:56:17.192Z,9.30
2023-05-25T04:02:59.820Z,9.50
2023-05-25T04:09:42.210Z,9.70
2023-05-25T04:16:26.015Z,9.80
2023-05-25T04:23:08.474Z,10.00
2023-05-25T04:29:54.169Z,10.10
2023-05-25T04:36:56.582Z,10.10
2023-05-25T04:43:49.246Z,10.40
2023-05-25T04:50:42.988Z,10.50
2023-05-25T04:57:28.340Z,10.60
2023-05-25T05:04:12.152Z,12.00
2023-05-25T05:10:54.797Z,14.60
2023-05-25T05:17:39.057Z,18.10
2023-05-25T05:24:22.023Z,18.60
2023-05-25T05:31:04.499Z,19.60
2023-05-25T05:37:48.376Z,19.50
2023-05-25T05:44:31.023Z,19.40
2023-05-25T05:51:13.642Z,19.00
2023-05-25T05:57:56.192Z,19.30
2023-05-25T06:04:38.962Z,20.40
2023-05-25T06:11:22.696Z,21.10
2023-05-25T06:18:05.190Z,21.40
2023-05-25T06:24:48.288Z,21.30
2023-05-25T06:31:30.903Z,21.50
2023-05-25T06:38:13.416Z,23.80
2023-05-25T06:44:56.074Z,23.50
2023-05-25T06:51:40.619Z,22.90
2023-05-25T06:58:23.101Z,20.10
2023-05-25T07:05:06.453Z,18.80
2023-05-25T07:11:49.039Z,17.60
2023-05-25T07:18:31.833Z,17.30
2023-05-25T07:25:14.715Z,17.10
2023-05-25T07:31:57.152Z,16.70
2023-05-25T07:38:39.821Z,16.80
2023-05-25T07:45:22.733Z,16.60
2023-05-25T07:52:06.043Z,16.60
2023-05-25T07:58:49.290Z,18.50
2023-05-25T08:05:32.071Z,19.00
2023-05-25T08:12:34.346Z,19.80
2023-05-25T08:19:16.932Z,21.60
2023-05-25T08:26:01.133Z,24.30
2023-05-25T08:32:43.707Z,24.90
2023-05-25T08:39:26.794Z,24.60
2023-05-25T08:46:09.536Z,24.70
2023-05-25T08:52:53.042Z,23.50
2023-05-25T09:00:02.038Z,23.40
2023-05-25T09:06:54.076Z,25.20
2023-05-25T09:13:44.669Z,22.80
2023-05-25T09:20:31.970Z,23.10
2023-05-25T09:27:19.292Z,25.20
2023-05-25T09:34:01.849Z,25.50
2023-05-25T09:40:45.156Z,27.00
2023-05-25T09:47:28.937Z,26.10
2023-05-25T09:54:12.093Z,25.60
2023-05-25T10:00:55.286Z,26.90
2023-05-25T10:07:40.305Z,25.90
2023-05-25T10:14:33.777Z,25.90
2023-05-25T10:21:17.471Z,24.00
2023-05-25T10:28:03.395Z,22.40
2023-05-25T10:34:46.774Z,25.50
2023-05-25T10:41:29.124Z,24.80
2023-05-25T10:48:11.647Z,23.70
2023-05-25T10:55:01.659Z,22.30
2023-05-25T11:01:51.641Z,22.00
2023-05-25T11:08:49.981Z,22.50
2023-05-25T11:15:32.430Z,23.10
2023-05-25T11:22:16.806Z,23.60
2023-05-25T11:29:00.739Z,23.20
2023-05-25T11:35:45.307Z,23.80
2023-05-25T11:42:29.091Z,23.10
2023-05-25T11:49:11.658Z,24.20
2023-05-25T11:56:03.534Z,24.30
2023-05-25T12:02:50.227Z,23.90
2023-05-25T12:09:32.906Z,23.20
2023-05-25T12:16:15.408Z,24.00
2023-05-25T12:22:58.080Z,24.90
2023-05-25T12:29:47.395Z,24.10
2023-05-25T12:36:52.686Z,24.20
2023-05-25T12:43:39.475Z,24.40
2023-05-25T12:50:21.822Z,24.00
2023-05-25T12:57:08.417Z,23.80
2023-05-25T13:03:51.525Z,23.80
2023-05-25T13:10:34.716Z,24.00
2023-05-25T13:17:17.351Z,24.60
2023-05-25T13:23:59.729Z,24.60
2023-05-25T13:30:43.176Z,23.90
2023-05-25T13:37:27.840Z,24.50
2023-05-25T13:44:11.190Z,24.10
2023-05-25T13:50:53.758Z,24.00
2023-05-25T13:57:37.513Z,23.60
2023-05-25T14:04:20.124Z,24.30
2023-05-25T14:11:02.925Z,24.60
2023-05-25T14:17:45.264Z,23.60
2023-05-25T14:24:27.648Z,23.70
2023-05-25T14:31:10.248Z,23.70
2023-05-25T14:37:52.857Z,23.60
2023-05-25T14:44:35.373Z,23.50
2023-05-25T14:51:17.781Z,23.30
2023-05-25T14:58:00.132Z,23.50
2023-05-25T15:04:42.421Z,24.00
2023-05-25T15:11:24.761Z,23.40
2023-05-25T15:18:07.336Z,23.50
2023-05-25T15:24:50.060Z,23.70
2023-05-25T15:31:32.501Z,23.60
2023-05-25T15:38:14.815Z,23.80
2023-05-25T15:44:57.205Z,23.40
2023-05-25T15:51:43.835Z,23.00
2023-05-25T15:58:26.221Z,23.10
2023-05-25T16:05:09.683Z,23.20
2023-05-25T16:11:52.015Z,23.20
2023-05-25T16:18:34.386Z,23.40
2023-05-25T16:25:16.822Z,23.40
2023-05-25T16:31:59.271Z,23.20
2023-05-25T16:38:41.676Z,23.10
2023-05-25T16:45:25.189Z,23.20
2023-05-25T16:52:07.704Z,23.20
2023-05-25T16:58:50.900Z,23.20
2023-05-25T17:05:33.193Z,23.10
2023-05-25T17:12:15.533Z,23.20
2023-05-25T17:18:58.352Z,23.10
2023-05-25T17:25:40.698Z,23.00
2023-05-25T17:32:23.465Z,22.80
2023-05-25T17:39:05.957Z,22.60
2023-05-25T17:45:48.444Z,22.50
2023-05-25T17:52:31.630Z,22.30
2023-05-25T17:59:14.207Z,22.20
2023-05-25T18:05:57.068Z,22.20
2023-05-25T18:12:39.566Z,22.10
2023-05-25T18:19:22.103Z,21.90
2023-05-25T18:26:05.811Z,21.80
2023-05-25T18:32:48.222Z,21.60
2023-05-25T18:39:31.343Z,21.40
2023-05-25T18:46:13.694Z,21.30
2023-05-25T18:52:56.678Z,21.20
2023-05-25T18:59:39.011Z,20.90
2023-05-25T19:06:21.730Z,20.70
2023-05-25T19:13:04.151Z,20.40
2023-05-25T19:19:46.484Z,20.20
2023-05-25T19:26:28.853Z,20.00
2023-05-25T19:33:11.259Z,19.90
2023-05-25T19:39:53.697Z,19.60
2023-05-25T19:46:39.013Z,19.50
2023-05-25T19:53:21.378Z,19.30
2023-05-25T20:00:05.995Z,19.00
2023-05-25T20:06:54.479Z,18.70
2023-05-25T20:13:36.865Z,18.40
2023-05-25T20:20:19.329Z,18.30
2023-05-25T20:27:02.431Z,18.10
2023-05-25T20:33:44.914Z,17.90
2023-05-25T20:40:27.474Z,17.80
2023-05-25T20:47:09.841Z,17.60
2023-05-25T20:53:52.204Z,17.40
2023-05-25T21:00:34.825Z,17.30
2023-05-25T21:07:18.682Z,17.10
2023-05-25T21:14:01.129Z,16.80
2023-05-25T21:20:44.060Z,16.70
2023-05-25T21:27:26.670Z,16.50
2023-05-25T21:34:09.096Z,16.30
2023-05-25T21:40:51.439Z,16.10
2023-05-25T21:47:34.018Z,15.90
2023-05-25T21:54:16.583Z,15.80
2023-05-25T22:00:59.222Z,15.80
2023-05-25T22:07:41.885Z,15.70
2023-05-25T22:14:24.460Z,15.70
2023-05-25T22:21:06.843Z,15.30
2023-05-25T22:27:49.365Z,15.00
2023-05-25T22:34:31.708Z,14.80
2023-05-25T22:41:14.052Z,14.80
2023-05-25T22:47:56.484Z,14.90
2023-05-25T22:54:38.978Z,15.00
2023-05-25T23:01:21.432Z,15.00
2023-05-25T23:08:03.855Z,15.10
2023-05-25T23:14:46.661Z,15.20
2023-05-25T23:21:29.248Z,15.30
2023-05-25T23:28:11.821Z,15.20
2023-05-25T23:34:54.267Z,15.20
2023-05-25T23:41:36.687Z,15.00
2023-05-25T23:48:19.077Z,14.60
2023-05-25T23:55:01.529Z,14.70
